»·PEaware :: N924DL KSBA-KFLG

N924DL :: KSBA-KFLG

FLIGHT INFORMATION

Flight Status: Arrived
Operator: Privately registered:
United States
More flights under this callsign
Pilot: Drew L. (13237)
Aircraft: SOCATA TBM-900
(TBM9)
More flights by this aircraft type
Origin: KSBA Santa Barbara Mun
United States
Destination: KFLG Flagstaff Pulliam
United States
More flights between these airports :: More routes between these airports
Route: +MISHN3 NNAVY EED DRK
File this flight plan on PilotEdge
Remarks: RMK / SIMBRIEF
Altitude:
(Current/Filed)
31,000ft
Speed:
(Current/Filed)
323kts
Departed: 27-Jul-20 12:24 PM
Arrived: 27-Jul-20 01:53 PM
Distance/Time
Traveled:
405nm/1:28
Distance/Time
To Go:
Arrived

Flight Plot

Page will automatically refresh every two minutes.


Map Options




Map Legend


Flown Route
Filed Route
Departure Airport
Arrival Airport
Navaid (VOR, NDB)
Fix

Horizontal Profiles

Position Reports

Time Latitude Longitude Heading Altitude Ground
Speed
27-Jul-20 12:07 34.423039 -119.836189 168 16ft 0kts
27-Jul-20 12:08 34.423039 -119.836189 168 16ft 0kts
27-Jul-20 12:09 34.423039 -119.836189 168 16ft 0kts
27-Jul-20 12:10 34.423039 -119.836189 168 16ft 0kts
27-Jul-20 12:11 34.423039 -119.836189 168 16ft 0kts
27-Jul-20 12:12 34.423039 -119.836189 168 16ft 0kts
27-Jul-20 12:13 34.423039 -119.836189 168 16ft 0kts
27-Jul-20 12:13 34.423039 -119.836189 168 16ft 0kts
27-Jul-20 12:15 34.423038 -119.836189 168 16ft 0kts
27-Jul-20 12:16 34.423038 -119.836189 168 16ft 0kts
27-Jul-20 12:16 34.423038 -119.836189 168 16ft 0kts
27-Jul-20 12:17 34.422785 -119.836879 256 16ft 10kts
27-Jul-20 12:18 34.426722 -119.837553 87 16ft 7kts
27-Jul-20 12:19 34.426925 -119.834718 51 16ft 9kts
27-Jul-20 12:20 34.427107 -119.834602 2 16ft 0kts
27-Jul-20 12:21 34.427107 -119.834602 2 16ft 0kts
27-Jul-20 12:22 34.427107 -119.834602 2 16ft 0kts
27-Jul-20 12:23 34.427739 -119.842735 266 32ft 112kts
27-Jul-20 12:24 34.425879 -119.886621 265 2204ft 150kts
27-Jul-20 12:25 34.411032 -119.927142 192 4812ft 149kts
27-Jul-20 12:26 34.369726 -119.935971 188 7214ft 154kts
27-Jul-20 12:27 34.331617 -119.920123 136 9379ft 162kts
27-Jul-20 12:28 34.299330 -119.881030 135 11335ft 167kts
27-Jul-20 12:29 34.265524 -119.839915 136 13952ft 173kts
27-Jul-20 12:30 34.231079 -119.798114 138 16350ft 178kts
27-Jul-20 12:31 34.202922 -119.748627 97 18615ft 200kts
27-Jul-20 12:32 34.202532 -119.679670 77 21072ft 216kts
27-Jul-20 12:33 34.220442 -119.608159 75 23203ft 229kts
27-Jul-20 12:34 34.239772 -119.532595 75 25108ft 241kts
27-Jul-20 12:35 34.260129 -119.452923 74 26848ft 254kts
27-Jul-20 12:36 34.281261 -119.369890 73 28846ft 264kts
27-Jul-20 12:37 34.303567 -119.282065 73 30583ft 275kts
27-Jul-20 12:38 34.327515 -119.187497 72 31055ft 313kts
27-Jul-20 12:39 34.354122 -119.082073 72 31036ft 336kts
27-Jul-20 12:40 34.381806 -118.971811 73 31029ft 344kts
27-Jul-20 12:41 34.409687 -118.860280 74 31028ft 346kts
27-Jul-20 12:42 34.437520 -118.748356 74 31031ft 345kts
27-Jul-20 12:43 34.465076 -118.637091 74 31040ft 345kts
27-Jul-20 12:44 34.492642 -118.525351 74 31048ft 345kts
27-Jul-20 12:45 34.520069 -118.413682 74 31043ft 346kts
27-Jul-20 12:46 34.547340 -118.302182 75 31027ft 345kts
27-Jul-20 12:47 34.574543 -118.190458 75 31034ft 344kts
27-Jul-20 12:48 34.601587 -118.078881 75 31044ft 344kts
27-Jul-20 12:49 34.628438 -117.967619 75 31040ft 345kts
27-Jul-20 12:50 34.655497 -117.855022 75 31029ft 345kts
27-Jul-20 12:51 34.682347 -117.742776 75 31037ft 345kts
27-Jul-20 12:52 34.708990 -117.630880 75 31058ft 345kts
27-Jul-20 12:53 34.735607 -117.518601 75 31069ft 346kts
27-Jul-20 12:54 34.762259 -117.405665 75 31070ft 346kts
27-Jul-20 12:55 34.788737 -117.292974 76 31057ft 346kts
27-Jul-20 12:56 34.815108 -117.180206 76 31039ft 346kts
27-Jul-20 12:57 34.841370 -117.067435 76 31015ft 346kts
27-Jul-20 12:58 34.867458 -116.954845 76 31005ft 344kts
27-Jul-20 12:59 34.898125 -116.844427 67 31006ft 345kts
27-Jul-20 13:00 34.937880 -116.738098 67 31004ft 344kts
27-Jul-20 13:01 34.978257 -116.632170 67 31006ft 344kts
27-Jul-20 13:02 35.016480 -116.525571 82 30998ft 337kts
27-Jul-20 13:03 35.008934 -116.415565 104 31021ft 324kts
27-Jul-20 13:04 34.995978 -116.306078 104 31020ft 325kts
27-Jul-20 13:05 34.983066 -116.196822 104 31029ft 325kts
27-Jul-20 13:06 34.969994 -116.087083 104 31027ft 326kts
27-Jul-20 13:07 34.956864 -115.977683 104 31031ft 326kts
27-Jul-20 13:08 34.943582 -115.867888 104 31037ft 327kts
27-Jul-20 13:09 34.930161 -115.757797 104 31045ft 328kts
27-Jul-20 13:10 34.916593 -115.647367 104 31041ft 329kts
27-Jul-20 13:11 34.902849 -115.536352 103 30974ft 331kts
27-Jul-20 13:12 34.888945 -115.424888 103 30907ft 332kts
27-Jul-20 13:13 34.874957 -115.313569 104 30899ft 331kts
27-Jul-20 13:14 34.861098 -115.204147 104 30900ft 330kts
27-Jul-20 13:15 34.846746 -115.091714 104 30901ft 329kts
27-Jul-20 13:16 34.832592 -114.981617 104 30901ft 327kts
27-Jul-20 13:17 34.818393 -114.871946 103 30901ft 325kts
27-Jul-20 13:18 34.804171 -114.762910 104 30902ft 325kts
27-Jul-20 13:19 34.789931 -114.654523 104 30903ft 324kts
27-Jul-20 13:20 34.775452 -114.545103 104 30903ft 325kts
27-Jul-20 13:21 34.765040 -114.434587 95 30681ft 335kts
27-Jul-20 13:22 34.762465 -114.327982 96 29823ft 348kts
27-Jul-20 13:23 34.759385 -114.206214 95 28746ft 353kts
27-Jul-20 13:24 34.756212 -114.085776 95 27437ft 357kts
27-Jul-20 13:25 34.752903 -113.964592 95 25945ft 357kts
27-Jul-20 13:26 34.749484 -113.843877 95 24615ft 350kts
27-Jul-20 13:27 34.746041 -113.726550 95 23616ft 340kts
27-Jul-20 13:28 34.742595 -113.612715 96 22615ft 331kts
27-Jul-20 13:29 34.739103 -113.500785 95 21622ft 328kts
27-Jul-20 13:30 34.735552 -113.390156 95 20635ft 325kts
27-Jul-20 13:31 34.731972 -113.281584 96 19652ft 323kts
27-Jul-20 13:32 34.728283 -113.172649 96 18647ft 317kts
27-Jul-20 13:33 34.724594 -113.066504 96 17647ft 311kts
27-Jul-20 13:34 34.720868 -112.962518 95 16643ft 298kts
27-Jul-20 13:35 34.717232 -112.863133 94 15636ft 290kts
27-Jul-20 13:36 34.713932 -112.765201 87 14623ft 288kts
27-Jul-20 13:37 34.747467 -112.676429 64 13616ft 289kts
27-Jul-20 13:38 34.782432 -112.588183 64 12869ft 281kts
27-Jul-20 13:39 34.815227 -112.505023 64 12870ft 270kts
27-Jul-20 13:40 34.848001 -112.421713 64 12871ft 269kts
27-Jul-20 13:41 34.880404 -112.339145 65 12872ft 268kts
27-Jul-20 13:42 34.912356 -112.257536 65 12889ft 268kts
27-Jul-20 13:43 34.944802 -112.174441 65 12910ft 269kts
27-Jul-20 13:44 34.977186 -112.091295 65 12934ft 270kts
27-Jul-20 13:45 35.009524 -112.008054 65 12934ft 272kts
27-Jul-20 13:46 35.042216 -111.923685 64 12481ft 275kts
27-Jul-20 13:47 35.075026 -111.838814 64 11682ft 275kts
27-Jul-20 13:48 35.098208 -111.750675 75 10947ft 267kts
27-Jul-20 13:49 35.113046 -111.670677 62 9829ft 209kts
27-Jul-20 13:51 35.145255 -111.633703 349 8239ft 116kts
27-Jul-20 13:52 35.147354 -111.661678 220 7034ft 94kts
27-Jul-20 13:53 35.136952 -111.673429 312 7004ft 9kts
27-Jul-20 13:54 35.137545 -111.674744 279 7003ft 0kts
27-Jul-20 13:55 35.137545 -111.674744 280 7003ft 0kts
27-Jul-20 13:56 35.137190 -111.675210 220 7004ft 0kts
27-Jul-20 13:57 35.137191 -111.675209 220 7004ft 0kts
27-Jul-20 13:58 35.137191 -111.675209 220 7004ft 0kts
27-Jul-20 13:59 35.137191 -111.675209 220 7004ft 0kts

Navigation Log

Ident Type
Flight plan parsing failed, navigation log unavailable